Time;durP1;ratioP1;P1;durP2;ratioP2;P2;SDS_P1;SDS_P2;PMS_P1;PMS_P2;Temp;Humidity;BMP_temperature;BMP_pressure;BME280_temperature;BME280_humidity;BME280_pressure;Samples;Min_cycle;Max_cycle;Signal;HPM_P1;HPM_P2
2020/12/10 00:03:58;;;;;;;7.07;5.70;;;15.00;62.70;;;;;;10468228;28;20045;-58
2020/12/10 00:08:59;;;;;;;7.55;5.00;;;14.90;62.70;;;;;;10458949;28;20037;-59
2020/12/10 00:14:00;;;;;;;5.97;4.95;;;14.90;62.90;;;;;;10458532;28;20059;-58
2020/12/10 00:19:01;;;;;;;7.75;5.47;;;14.90;62.90;;;;;;10458809;28;20024;-59
2020/12/10 00:24:02;;;;;;;6.93;4.90;;;14.90;62.90;;;;;;10458346;28;20040;-59
2020/12/10 00:29:03;;;;;;;6.75;5.05;;;14.90;62.90;;;;;;10462324;28;20078;-59
2020/12/10 00:34:05;;;;;;;7.80;5.18;;;14.90;62.90;;;;;;10457971;28;20021;-58
2020/12/10 00:39:06;;;;;;;6.78;4.93;;;14.80;62.90;;;;;;10458073;28;20029;-59
2020/12/10 00:44:07;;;;;;;6.65;4.90;;;14.80;62.90;;;;;;10464499;28;20024;-58
2020/12/10 00:49:07;;;;;;;6.32;4.97;;;14.80;62.80;;;;;;10456431;28;20035;-58
2020/12/10 00:54:08;;;;;;;6.90;5.15;;;14.80;62.70;;;;;;10457303;28;20404;-58
2020/12/10 00:59:09;;;;;;;7.47;5.65;;;14.70;62.80;;;;;;10457175;28;20444;-58
2020/12/10 01:04:11;;;;;;;7.18;5.25;;;14.80;62.80;;;;;;10454653;28;20050;-59
2020/12/10 01:09:12;;;;;;;7.40;4.70;;;14.80;62.80;;;;;;10452773;28;20338;-59
2020/12/10 01:14:13;;;;;;;5.80;4.22;;;14.70;62.70;;;;;;10456202;28;20036;-58
2020/12/10 01:19:15;;;;;;;6.60;4.88;;;14.70;62.60;;;;;;10453133;28;20481;-58
2020/12/10 01:24:15;;;;;;;5.55;4.65;;;14.70;62.60;;;;;;10456092;28;20036;-58
2020/12/10 01:29:16;;;;;;;6.82;4.20;;;14.70;62.70;;;;;;10455053;28;20096;-59
2020/12/10 01:34:18;;;;;;;6.00;4.80;;;14.60;62.60;;;;;;10455344;28;20485;-59
2020/12/10 01:39:19;;;;;;;6.45;4.70;;;14.60;62.70;;;;;;10455498;28;20041;-59
2020/12/10 01:44:20;;;;;;;6.88;5.15;;;14.60;62.70;;;;;;10456697;28;20033;-57
2020/12/10 01:49:20;;;;;;;6.88;4.53;;;14.60;62.60;;;;;;10455367;28;20028;-59
2020/12/10 01:54:21;;;;;;;7.47;4.38;;;14.60;62.60;;;;;;10454018;28;20116;-59
2020/12/10 01:59:23;;;;;;;7.78;5.13;;;14.60;62.50;;;;;;10454213;28;20104;-59
2020/12/10 02:04:37;;;;;;;6.55;4.82;;;14.60;62.50;;;;;;10453463;28;20052;-59
2020/12/10 02:09:37;;;;;;;5.43;4.28;;;14.60;62.60;;;;;;10453925;28;20017;-59
2020/12/10 02:14:38;;;;;;;6.40;4.10;;;14.60;62.50;;;;;;10454819;28;20033;-59
2020/12/10 02:19:39;;;;;;;5.63;4.28;;;14.50;62.60;;;;;;10468894;28;20077;-59
2020/12/10 02:24:39;;;;;;;6.47;4.95;;;14.50;62.60;;;;;;10454163;28;20436;-58
2020/12/10 02:29:40;;;;;;;6.55;4.68;;;14.50;62.60;;;;;;10454312;28;20389;-59
2020/12/10 02:34:41;;;;;;;5.57;4.32;;;14.50;62.60;;;;;;10454390;28;20378;-59
2020/12/10 02:39:42;;;;;;;5.63;4.03;;;14.50;62.50;;;;;;10453041;28;20021;-58
2020/12/10 02:44:42;;;;;;;6.82;4.88;;;14.50;62.50;;;;;;10460490;28;20086;-59
2020/12/10 02:49:43;;;;;;;5.90;4.30;;;14.40;62.40;;;;;;10462200;28;20021;-59
2020/12/10 02:54:44;;;;;;;5.70;4.60;;;14.40;62.40;;;;;;10461859;28;20057;-59
2020/12/10 02:59:44;;;;;;;5.22;4.50;;;14.40;62.40;;;;;;10461938;28;20052;-58
2020/12/10 03:04:45;;;;;;;6.28;5.13;;;14.40;62.40;;;;;;10476561;28;20076;-58
2020/12/10 03:09:46;;;;;;;5.38;3.85;;;14.40;62.40;;;;;;10461496;28;20105;-58
2020/12/10 03:14:46;;;;;;;7.20;5.20;;;14.30;62.30;;;;;;10461612;28;20112;-58
2020/12/10 03:19:47;;;;;;;6.45;4.75;;;14.30;62.30;;;;;;10461430;28;20108;-59
2020/12/10 03:24:48;;;;;;;5.82;4.60;;;14.30;62.20;;;;;;10460577;28;20033;-59
2020/12/10 03:29:49;;;;;;;5.97;4.40;;;14.30;62.30;;;;;;10460775;28;20044;-59
2020/12/10 03:34:50;;;;;;;6.20;4.53;;;14.30;62.30;;;;;;10452492;28;20480;-58
2020/12/10 03:39:50;;;;;;;6.18;4.60;;;14.30;62.30;;;;;;10460700;28;20363;-57
2020/12/10 03:44:51;;;;;;;6.80;4.63;;;14.30;62.30;;;;;;10463658;28;20040;-59
2020/12/10 03:49:52;;;;;;;6.13;4.55;;;14.30;62.40;;;;;;10459834;28;20108;-58
2020/12/10 03:54:53;;;;;;;5.35;3.80;;;14.20;62.20;;;;;;10459076;28;20338;-59
2020/12/10 03:59:53;;;;;;;6.57;4.32;;;14.20;62.20;;;;;;10459444;28;20135;-59
2020/12/10 04:04:54;;;;;;;7.68;4.93;;;14.20;62.10;;;;;;10459037;28;20045;-58
2020/12/10 04:09:55;;;;;;;5.55;4.50;;;14.20;62.10;;;;;;10465822;28;20128;-59
2020/12/10 04:14:56;;;;;;;6.75;4.60;;;14.20;62.20;;;;;;10458645;28;20025;-58
2020/12/10 04:19:57;;;;;;;6.90;4.75;;;14.20;62.20;;;;;;10458656;28;20363;-59
2020/12/10 04:24:57;;;;;;;6.72;4.85;;;14.20;62.10;;;;;;10458232;28;20112;-58
2020/12/10 04:29:58;;;;;;;4.93;3.85;;;14.20;62.10;;;;;;10457143;28;20532;-58
2020/12/10 04:34:58;;;;;;;6.30;4.50;;;14.10;62.20;;;;;;10456259;28;20127;-58
2020/12/10 04:39:59;;;;;;;6.05;4.47;;;14.10;62.10;;;;;;10457670;28;20041;-58
2020/12/10 04:45:00;;;;;;;5.93;4.32;;;14.10;62.20;;;;;;10460943;28;20029;-58
2020/12/10 04:50:04;;;;;;;5.80;3.75;;;14.10;62.20;;;;;;10457743;28;20095;-58
2020/12/10 04:55:05;;;;;;;6.78;5.07;;;14.10;62.20;;;;;;10471533;28;20025;-58
2020/12/10 05:00:07;;;;;;;6.07;4.60;;;14.10;62.10;;;;;;10446766;28;20512;-58
2020/12/10 05:05:33;;;;;;;6.28;4.93;;;14.10;62.10;;;;;;10448491;28;20037;-59
2020/12/10 05:10:45;;;;;;;5.15;4.13;;;14.10;62.00;;;;;;10466059;28;20396;-58
2020/12/10 05:15:46;;;;;;;5.85;4.80;;;14.10;62.10;;;;;;10453270;28;20041;-58
2020/12/10 05:20:58;;;;;;;5.88;4.22;;;14.00;61.90;;;;;;10459155;28;20037;-59
2020/12/10 05:26:02;;;;;;;5.07;4.35;;;14.00;62.10;;;;;;10443281;28;20075;-58
2020/12/10 05:31:15;;;;;;;6.00;4.28;;;14.00;62.10;;;;;;10456004;28;20025;-58
2020/12/10 05:36:15;;;;;;;5.57;4.35;;;14.00;62.10;;;;;;10455803;28;20043;-59
2020/12/10 05:41:22;;;;;;;5.25;4.07;;;14.00;62.00;;;;;;10451179;28;20443;-58
2020/12/10 05:46:24;;;;;;;5.78;4.38;;;13.90;61.90;;;;;;10450571;28;20071;-59
2020/12/10 05:51:27;;;;;;;5.30;4.20;;;13.90;62.00;;;;;;10452975;28;20024;-58
2020/12/10 05:56:33;;;;;;;6.05;4.70;;;13.90;62.00;;;;;;10445622;28;20037;-59
2020/12/10 06:01:35;;;;;;;5.35;3.90;;;13.90;61.90;;;;;;10445197;28;20045;-58
2020/12/10 06:06:37;;;;;;;5.25;4.32;;;14.00;61.90;;;;;;10451280;28;20021;-59
2020/12/10 06:14:29;;;;;;;5.75;3.70;;;14.30;60.80;;;;;;10532178;28;20346;-59
2020/12/10 06:19:34;;;;;;;5.25;3.55;;;18.00;54.80;;;;;;10487681;28;20029;-58
2020/12/10 06:24:34;;;;;;;5.30;3.47;;;20.30;49.70;;;;;;10486719;28;20112;-59
2020/12/10 06:29:35;;;;;;;11.02;4.38;;;21.40;47.20;;;;;;10487155;28;20104;-61
2020/12/10 06:34:46;;;;;;;10.25;3.90;;;22.30;44.90;;;;;;10472509;28;20116;-61
2020/12/10 06:39:51;;;;;;;7.57;3.95;;;22.70;43.90;;;;;;10476753;28;20475;-63
2020/12/10 06:44:52;;;;;;;6.55;3.92;;;23.10;43.50;;;;;;10468477;28;20033;-59
2020/12/10 06:49:53;;;;;;;9.38;3.67;;;23.30;42.50;;;;;;10480851;28;20029;-59
2020/12/10 06:55:12;;;;;;;17.10;4.07;;;23.50;42.40;;;;;;10475524;28;20473;-61
2020/12/10 07:00:38;;;;;;;23.10;4.07;;;23.70;41.90;;;;;;10470167;28;20041;-62
2020/12/10 07:05:38;;;;;;;8.68;3.80;;;23.70;41.40;;;;;;10483314;28;20055;-61
2020/12/10 07:10:52;;;;;;;8.50;3.78;;;24.00;41.00;;;;;;10481023;28;20066;-59
2020/12/10 07:15:52;;;;;;;5.45;3.67;;;23.60;42.00;;;;;;10488970;28;20497;-60
2020/12/10 07:20:53;;;;;;;6.18;3.72;;;23.70;42.10;;;;;;10474728;28;20043;-60
2020/12/10 07:25:54;;;;;;;7.95;3.90;;;23.60;42.00;;;;;;10459917;28;20052;-59
2020/12/10 07:30:54;;;;;;;11.18;4.25;;;23.90;41.20;;;;;;10454518;28;20029;-59
2020/12/10 07:35:55;;;;;;;9.52;3.92;;;23.90;41.30;;;;;;10448245;28;20112;-59
2020/12/10 07:40:56;;;;;;;7.00;3.33;;;24.00;41.30;;;;;;10452644;28;20100;-58
2020/12/10 07:45:57;;;;;;;6.35;2.88;;;24.00;42.00;;;;;;10452360;28;20416;-60
2020/12/10 07:50:57;;;;;;;7.75;3.20;;;23.90;41.80;;;;;;10455227;28;20033;-58
2020/12/10 07:56:03;;;;;;;8.35;3.88;;;23.90;41.80;;;;;;10452262;28;20474;-58
2020/12/10 08:01:05;;;;;;;6.97;3.17;;;23.90;41.90;;;;;;10455028;28;20536;-60
2020/12/10 08:06:10;;;;;;;6.93;3.80;;;23.70;42.20;;;;;;10453521;28;20124;-60
2020/12/10 08:11:18;;;;;;;6.05;3.10;;;23.70;42.30;;;;;;10439276;28;20144;-59
2020/12/10 08:16:19;;;;;;;5.32;2.97;;;23.80;42.40;;;;;;10449676;28;20384;-59
2020/12/10 08:21:32;;;;;;;6.60;3.92;;;23.80;42.40;;;;;;10450847;28;20036;-60
2020/12/10 08:26:33;;;;;;;6.28;3.70;;;23.80;42.30;;;;;;10442708;28;20037;-61
2020/12/10 08:31:34;;;;;;;5.30;3.40;;;23.80;42.00;;;;;;10444321;28;20409;-58
2020/12/10 08:36:35;;;;;;;10.93;3.92;;;23.80;42.60;;;;;;10442694;28;20025;-65
2020/12/10 08:41:37;;;;;;;6.78;3.65;;;23.70;43.00;;;;;;10454101;28;20184;-64
2020/12/10 08:46:38;;;;;;;5.63;3.28;;;23.50;43.10;;;;;;10455638;28;20029;-62
2020/12/10 08:51:40;;;;;;;4.93;3.25;;;23.60;42.60;;;;;;10447595;28;20450;-64
2020/12/10 08:56:41;;;;;;;5.85;3.83;;;23.70;42.70;;;;;;10439233;28;20504;-64
2020/12/10 09:01:52;;;;;;;5.20;3.50;;;23.60;43.00;;;;;;10441198;28;20143;-62
2020/12/10 09:06:53;;;;;;;7.25;3.58;;;23.70;42.60;;;;;;10446449;28;20037;-63
2020/12/10 09:11:53;;;;;;;5.60;3.25;;;23.60;43.10;;;;;;10445318;28;20525;-65
2020/12/10 09:16:54;;;;;;;5.32;3.33;;;23.70;43.20;;;;;;10453540;28;20104;-64
2020/12/10 09:21:55;;;;;;;5.32;3.00;;;23.60;42.90;;;;;;10444743;28;20037;-64
2020/12/10 09:26:56;;;;;;;5.70;3.88;;;23.70;42.80;;;;;;10420279;28;20037;-66
2020/12/10 09:31:57;;;;;;;7.60;4.28;;;23.40;43.40;;;;;;10432046;28;20030;-66
2020/12/10 09:37:00;;;;;;;5.22;3.53;;;23.50;43.50;;;;;;10445536;28;20033;-66
2020/12/10 09:42:03;;;;;;;5.40;3.65;;;23.60;43.50;;;;;;10433357;28;20029;-67
2020/12/10 09:47:09;;;;;;;4.97;3.35;;;23.50;43.50;;;;;;10440797;28;20064;-65
2020/12/10 09:52:13;;;;;;;7.40;4.03;;;23.40;43.70;;;;;;10449016;28;20024;-65
2020/12/10 10:00:36;;;;;;;4.53;3.22;;;23.80;42.00;;;;;;10528675;27;20872;-58
2020/12/10 10:05:37;;;;;;;7.55;4.07;;;20.60;46.20;;;;;;10486562;28;20029;-58
2020/12/10 10:10:38;;;;;;;5.38;4.25;;;18.60;51.40;;;;;;10483344;28;20471;-58
2020/12/10 10:15:41;;;;;;;6.50;4.32;;;17.60;54.50;;;;;;10490591;28;20454;-58
2020/12/10 10:20:42;;;;;;;5.25;3.92;;;17.10;56.00;;;;;;10486071;28;20020;-58
2020/12/10 10:25:43;;;;;;;5.53;3.45;;;16.80;57.00;;;;;;10487382;28;20050;-58
2020/12/10 10:30:43;;;;;;;4.68;3.92;;;16.60;57.60;;;;;;10488439;28;20021;-58
2020/12/10 10:35:47;;;;;;;5.90;3.53;;;16.50;57.90;;;;;;10482399;28;20040;-58
2020/12/10 10:40:47;;;;;;;5.63;3.85;;;16.50;58.20;;;;;;10503962;28;20070;-58
2020/12/10 10:45:48;;;;;;;4.50;3.35;;;16.40;58.70;;;;;;10479374;28;20028;-58
2020/12/10 10:50:49;;;;;;;4.10;3.38;;;16.30;59.00;;;;;;10487601;28;20048;-58
2020/12/10 10:55:50;;;;;;;5.35;3.97;;;16.20;59.30;;;;;;10483422;28;20174;-58
2020/12/10 11:00:50;;;;;;;4.75;3.80;;;16.20;59.30;;;;;;10487013;28;20041;-58
2020/12/10 11:05:54;;;;;;;3.88;3.42;;;16.20;59.40;;;;;;10484286;28;20031;-57
2020/12/10 11:10:55;;;;;;;4.85;3.42;;;16.20;59.10;;;;;;10464968;28;20467;-58
2020/12/10 11:15:55;;;;;;;4.47;3.22;;;16.20;59.80;;;;;;10478454;28;20163;-58
2020/12/10 11:20:56;;;;;;;4.63;4.00;;;16.20;59.20;;;;;;10453152;28;20059;-57
2020/12/10 11:25:57;;;;;;;5.63;3.50;;;16.20;59.40;;;;;;10458580;28;20043;-58
2020/12/10 11:30:58;;;;;;;4.85;3.75;;;16.10;59.60;;;;;;10458808;28;20219;-58
2020/12/10 11:36:01;;;;;;;4.55;3.45;;;16.10;59.50;;;;;;10425865;28;20120;-58
2020/12/10 11:41:02;;;;;;;5.65;4.18;;;16.10;59.40;;;;;;10428801;28;20058;-58
2020/12/10 11:46:02;;;;;;;5.95;4.32;;;16.10;59.50;;;;;;10455877;28;20432;-58
2020/12/10 11:51:03;;;;;;;8.73;4.20;;;16.10;59.50;;;;;;10450030;28;20036;-58
2020/12/10 11:56:04;;;;;;;4.18;3.17;;;16.10;59.70;;;;;;10441594;28;20056;-58
2020/12/10 12:01:04;;;;;;;4.68;3.95;;;16.10;59.60;;;;;;10441308;28;20028;-58
2020/12/10 12:06:05;;;;;;;6.50;3.85;;;16.10;59.50;;;;;;10440469;28;20028;-59
2020/12/10 12:11:06;;;;;;;6.18;4.03;;;16.10;59.50;;;;;;10451712;28;20484;-58
2020/12/10 12:16:07;;;;;;;6.68;4.35;;;16.00;59.50;;;;;;10451003;28;20457;-61
2020/12/10 12:21:08;;;;;;;6.35;3.60;;;16.00;59.60;;;;;;10453840;28;20021;-58
2020/12/10 12:26:08;;;;;;;6.72;4.00;;;16.10;59.50;;;;;;10457811;28;20078;-59
2020/12/10 12:31:09;;;;;;;6.28;3.88;;;16.10;59.30;;;;;;10453499;28;20020;-58
2020/12/10 12:36:11;;;;;;;5.07;4.15;;;16.10;59.50;;;;;;10457202;28;20451;-58
2020/12/10 12:41:12;;;;;;;6.43;3.50;;;16.10;59.70;;;;;;10456813;28;20025;-58
2020/12/10 12:46:13;;;;;;;6.40;3.78;;;16.00;59.90;;;;;;10456845;28;20067;-58
2020/12/10 12:51:13;;;;;;;5.70;4.18;;;16.00;59.80;;;;;;10456500;28;20548;-58
2020/12/10 12:56:16;;;;;;;5.82;3.65;;;16.00;59.90;;;;;;10456181;28;20405;-59
2020/12/10 13:01:20;;;;;;;5.18;3.72;;;15.90;60.00;;;;;;10456280;28;20051;-59
2020/12/10 13:06:21;;;;;;;5.30;3.47;;;16.00;59.80;;;;;;10456027;28;20458;-59
2020/12/10 13:11:21;;;;;;;6.72;3.80;;;16.00;59.80;;;;;;10456042;28;20099;-58
2020/12/10 13:16:22;;;;;;;5.88;4.05;;;16.00;59.70;;;;;;10463901;28;20055;-58
2020/12/10 13:21:24;;;;;;;4.00;3.55;;;16.10;59.60;;;;;;10455433;28;20103;-58
2020/12/10 13:26:26;;;;;;;5.70;3.95;;;16.00;59.80;;;;;;10452456;28;20029;-59
2020/12/10 13:31:30;;;;;;;5.00;3.83;;;16.00;59.70;;;;;;10453571;28;20478;-58
2020/12/10 13:36:32;;;;;;;6.00;3.78;;;16.00;59.70;;;;;;10439238;28;20026;-58
2020/12/10 13:41:33;;;;;;;5.47;3.92;;;16.10;59.40;;;;;;10440006;28;20032;-58
2020/12/10 13:46:40;;;;;;;4.32;3.35;;;16.10;59.30;;;;;;10440839;28;20029;-58
2020/12/10 13:51:41;;;;;;;5.47;4.03;;;16.10;59.50;;;;;;10446738;28;20079;-58
2020/12/10 13:56:41;;;;;;;5.32;4.05;;;16.10;60.20;;;;;;10451798;28;20156;-58
2020/12/10 14:01:42;;;;;;;4.80;3.97;;;16.10;59.50;;;;;;10428151;28;20482;-58
2020/12/10 14:06:43;;;;;;;5.80;4.35;;;16.00;59.60;;;;;;10432797;28;20546;-58
2020/12/10 14:11:44;;;;;;;5.60;3.38;;;16.00;59.50;;;;;;10451134;28;20075;-57
2020/12/10 14:16:45;;;;;;;5.03;3.58;;;16.00;59.60;;;;;;10459519;28;20037;-58
2020/12/10 14:21:45;;;;;;;4.40;3.60;;;16.00;59.60;;;;;;10443389;28;20032;-58
2020/12/10 14:26:50;;;;;;;5.95;4.18;;;16.10;59.40;;;;;;10450363;28;20389;-59
2020/12/10 14:31:51;;;;;;;4.88;3.92;;;16.10;59.30;;;;;;10452459;28;20056;-59
2020/12/10 14:36:51;;;;;;;4.75;3.53;;;16.10;59.20;;;;;;10453903;28;20068;-58
2020/12/10 14:41:52;;;;;;;5.70;3.72;;;16.10;59.20;;;;;;10453882;28;20539;-58
2020/12/10 14:46:53;;;;;;;5.40;3.75;;;16.10;59.30;;;;;;10460569;28;20041;-59
2020/12/10 14:51:54;;;;;;;5.43;3.45;;;16.10;59.20;;;;;;10461807;28;20461;-59
2020/12/10 14:56:56;;;;;;;5.35;3.85;;;16.10;59.30;;;;;;10484664;28;20059;-58
2020/12/10 15:01:58;;;;;;;5.65;3.72;;;16.10;59.20;;;;;;10460299;28;20029;-59
2020/12/10 15:06:58;;;;;;;5.03;3.90;;;16.10;59.10;;;;;;10458214;28;20029;-58
2020/12/10 15:11:59;;;;;;;4.68;4.18;;;16.10;59.10;;;;;;10447340;28;20030;-57
2020/12/10 15:17:00;;;;;;;5.13;3.95;;;16.10;59.20;;;;;;10445584;28;20493;-59
2020/12/10 15:22:01;;;;;;;5.90;4.57;;;16.20;59.10;;;;;;10442332;28;20115;-58
2020/12/10 15:27:01;;;;;;;4.78;3.67;;;16.10;59.20;;;;;;10456563;28;20500;-58
2020/12/10 15:32:03;;;;;;;6.38;4.60;;;16.10;59.10;;;;;;10459788;28;20119;-58
2020/12/10 15:37:08;;;;;;;5.85;4.35;;;16.20;59.00;;;;;;10459731;28;20175;-58
2020/12/10 15:42:09;;;;;;;6.28;4.45;;;16.10;59.20;;;;;;10459659;28;20171;-57
2020/12/10 15:47:10;;;;;;;6.03;4.55;;;16.20;59.10;;;;;;10459474;28;20116;-58
2020/12/10 15:52:11;;;;;;;5.90;4.85;;;16.10;59.20;;;;;;10459029;28;20033;-58
2020/12/10 15:57:11;;;;;;;5.38;4.25;;;16.20;59.20;;;;;;10474156;28;20358;-58
2020/12/10 16:02:12;;;;;;;5.60;4.32;;;16.20;59.10;;;;;;10457332;28;20026;-58
2020/12/10 16:07:13;;;;;;;5.72;4.50;;;16.10;59.30;;;;;;10454097;28;20474;-57
2020/12/10 16:12:14;;;;;;;6.63;5.10;;;16.20;59.30;;;;;;10455250;28;20064;-57
2020/12/10 16:17:15;;;;;;;5.18;4.07;;;16.10;59.40;;;;;;10461016;28;20083;-58
2020/12/10 16:22:15;;;;;;;5.90;4.40;;;16.20;59.40;;;;;;10452551;28;20047;-58
2020/12/10 16:27:16;;;;;;;7.38;4.93;;;16.20;59.20;;;;;;10455132;28;20078;-58
2020/12/10 16:32:21;;;;;;;6.05;4.22;;;16.20;59.30;;;;;;10441902;28;20055;-58
2020/12/10 16:37:22;;;;;;;5.80;4.43;;;16.20;59.10;;;;;;10432131;28;20347;-58
2020/12/10 16:42:23;;;;;;;6.40;4.63;;;16.20;59.10;;;;;;10432989;28;20025;-59
2020/12/10 16:47:23;;;;;;;6.28;5.20;;;16.20;59.10;;;;;;10440539;28;20065;-60
2020/12/10 16:52:27;;;;;;;8.65;5.63;;;16.20;59.10;;;;;;10444791;28;20029;-59
2020/12/10 16:57:28;;;;;;;8.70;5.60;;;16.10;59.10;;;;;;10452034;28;20048;-60
2020/12/10 17:02:29;;;;;;;11.88;7.68;;;16.00;59.30;;;;;;10468526;28;20029;-61
2020/12/10 17:07:32;;;;;;;15.95;10.48;;;15.90;58.90;;;;;;10453394;28;20086;-60
2020/12/10 17:12:33;;;;;;;13.75;10.80;;;15.90;58.30;;;;;;10461147;28;20367;-63
2020/12/10 17:17:34;;;;;;;14.55;10.73;;;15.90;57.50;;;;;;10458568;28;20098;-62
2020/12/10 17:22:35;;;;;;;15.70;11.27;;;16.10;56.40;;;;;;10447573;28;20481;-61
2020/12/10 17:27:35;;;;;;;18.00;11.45;;;16.40;55.20;;;;;;10452552;28;20106;-60
2020/12/10 17:32:36;;;;;;;29.88;16.67;;;16.70;54.40;;;;;;10442283;28;20473;-58
2020/12/10 17:37:37;;;;;;;37.03;21.92;;;16.90;54.20;;;;;;10448248;28;20483;-64
2020/12/10 17:42:38;;;;;;;34.78;19.80;;;17.20;58.00;;;;;;10445391;28;20114;-66
2020/12/10 17:47:39;;;;;;;39.40;21.63;;;17.30;59.10;;;;;;10461294;28;20045;-61
2020/12/10 17:52:40;;;;;;;39.35;19.35;;;17.40;58.80;;;;;;10454657;28;20026;-63
2020/12/10 17:57:41;;;;;;;33.83;18.08;;;17.60;58.20;;;;;;10445661;28;20041;-68
2020/12/10 18:02:42;;;;;;;31.67;18.88;;;17.80;57.50;;;;;;10426020;28;20028;-62
2020/12/10 18:07:44;;;;;;;31.25;18.42;;;17.90;56.90;;;;;;10445842;28;20031;-64
2020/12/10 18:12:45;;;;;;;30.92;17.15;;;18.00;56.60;;;;;;10452675;28;20055;-63
2020/12/10 18:17:46;;;;;;;29.42;16.90;;;18.00;56.40;;;;;;10468561;28;20108;-63
2020/12/10 18:22:47;;;;;;;30.83;17.98;;;18.10;56.10;;;;;;10464085;28;20025;-63
2020/12/10 18:27:48;;;;;;;32.25;16.42;;;18.20;56.00;;;;;;10462886;28;20116;-63
2020/12/10 18:32:49;;;;;;;27.60;16.35;;;18.20;56.00;;;;;;10462425;28;20029;-63
2020/12/10 18:37:49;;;;;;;24.55;15.00;;;18.20;55.90;;;;;;10462124;28;20420;-63
2020/12/10 18:42:53;;;;;;;25.00;15.05;;;18.10;56.00;;;;;;10439965;28;20037;-63
2020/12/10 18:47:54;;;;;;;21.35;14.98;;;18.10;56.20;;;;;;10460235;28;20036;-62
2020/12/10 18:52:55;;;;;;;21.35;14.13;;;18.20;56.00;;;;;;10456908;28;20073;-61
2020/12/10 18:57:55;;;;;;;25.08;15.82;;;18.20;56.00;;;;;;10445465;28;20132;-61
2020/12/10 19:02:57;;;;;;;26.23;14.80;;;18.20;55.90;;;;;;10462627;28;20120;-61
2020/12/10 19:07:57;;;;;;;22.42;14.07;;;18.30;55.70;;;;;;10460825;28;20071;-62
2020/12/10 19:13:00;;;;;;;24.42;13.63;;;18.30;55.70;;;;;;10460855;28;20171;-61
2020/12/10 19:18:07;;;;;;;28.17;15.52;;;18.40;55.70;;;;;;10472044;28;20064;-61
2020/12/10 19:23:08;;;;;;;19.65;12.85;;;18.40;55.60;;;;;;10443707;28;20044;-61
2020/12/10 19:28:08;;;;;;;18.35;13.00;;;18.40;55.70;;;;;;10471095;28;20044;-62
2020/12/10 19:33:09;;;;;;;18.75;12.38;;;18.40;55.60;;;;;;10455817;28;20083;-62
2020/12/10 19:38:10;;;;;;;21.92;12.90;;;18.50;55.80;;;;;;10465305;28;20152;-61
2020/12/10 19:43:11;;;;;;;18.17;13.50;;;18.40;55.80;;;;;;10447416;28;20111;-61
2020/12/10 19:48:13;;;;;;;17.88;11.77;;;18.50;55.90;;;;;;10442942;28;20478;-62
2020/12/10 19:53:14;;;;;;;18.58;12.05;;;18.50;55.90;;;;;;10453252;28;20364;-61
2020/12/10 19:58:14;;;;;;;18.73;12.50;;;18.50;56.10;;;;;;10440060;28;20129;-62
2020/12/10 20:03:15;;;;;;;18.88;13.50;;;18.50;56.20;;;;;;10448081;28;20020;-62
2020/12/10 20:08:16;;;;;;;19.70;13.00;;;18.50;56.00;;;;;;10458867;28;20037;-63
2020/12/10 20:13:17;;;;;;;16.80;11.80;;;18.50;56.20;;;;;;10446701;28;20033;-63
2020/12/10 20:18:17;;;;;;;16.05;12.45;;;18.20;56.70;;;;;;10431139;28;20083;-63
2020/12/10 20:23:18;;;;;;;21.42;12.05;;;18.10;57.10;;;;;;10444185;28;20056;-62
2020/12/10 20:28:19;;;;;;;22.52;13.93;;;17.90;57.50;;;;;;10456521;28;20033;-62
2020/12/10 20:33:21;;;;;;;21.45;12.82;;;17.70;58.00;;;;;;10457776;28;20100;-63
2020/12/10 20:38:21;;;;;;;16.10;10.77;;;17.50;58.50;;;;;;10458619;28;20033;-63
2020/12/10 20:43:26;;;;;;;19.27;12.82;;;17.30;59.00;;;;;;10458009;28;20037;-63
2020/12/10 20:48:27;;;;;;;17.52;10.88;;;17.10;59.20;;;;;;10459946;28;20036;-63
2020/12/10 20:53:28;;;;;;;17.95;11.85;;;16.90;59.60;;;;;;10469879;28;20103;-62
2020/12/10 20:58:29;;;;;;;16.08;11.10;;;16.70;60.10;;;;;;10446213;28;20069;-63
2020/12/10 21:03:32;;;;;;;16.73;12.15;;;16.60;60.70;;;;;;10455138;28;20492;-63
2020/12/10 21:08:33;;;;;;;18.08;12.38;;;16.40;61.00;;;;;;10456098;28;20112;-63
2020/12/10 21:13:33;;;;;;;18.70;13.10;;;16.30;61.20;;;;;;10457098;28;20107;-63
2020/12/10 21:18:34;;;;;;;20.42;12.57;;;16.20;61.40;;;;;;10453036;28;20044;-63
2020/12/10 21:23:35;;;;;;;18.67;12.20;;;16.10;61.60;;;;;;10448028;28;20025;-62
2020/12/10 21:28:37;;;;;;;17.08;11.30;;;16.00;61.80;;;;;;10454192;28;20111;-62
2020/12/10 21:33:41;;;;;;;16.40;12.57;;;15.90;61.90;;;;;;10454369;28;20036;-62
2020/12/10 21:38:42;;;;;;;15.18;10.77;;;15.90;62.00;;;;;;10456348;28;20359;-63
2020/12/10 21:43:44;;;;;;;19.45;11.75;;;15.80;62.10;;;;;;10470265;28;20033;-63
2020/12/10 21:48:45;;;;;;;16.98;12.07;;;15.70;62.00;;;;;;10456559;28;20492;-63
2020/12/10 21:53:48;;;;;;;16.95;11.20;;;15.70;61.90;;;;;;10460894;28;20032;-63
2020/12/10 21:58:50;;;;;;;17.38;11.70;;;15.60;61.90;;;;;;10460083;28;20060;-62
2020/12/10 22:03:50;;;;;;;17.92;11.55;;;15.60;61.90;;;;;;10476297;28;20029;-62
2020/12/10 22:08:52;;;;;;;16.77;10.90;;;15.50;61.90;;;;;;10466508;28;20033;-62
2020/12/10 22:13:59;;;;;;;16.85;11.50;;;15.50;61.80;;;;;;10453249;28;20113;-63
2020/12/10 22:19:00;;;;;;;16.40;11.13;;;15.40;61.90;;;;;;10466402;28;20083;-62
2020/12/10 22:24:01;;;;;;;15.98;10.85;;;15.40;61.90;;;;;;10458349;28;20075;-62
2020/12/10 22:29:01;;;;;;;18.20;9.50;;;15.30;62.00;;;;;;10452775;28;20037;-62
2020/12/10 22:34:02;;;;;;;16.42;11.45;;;15.30;62.20;;;;;;10452613;28;20037;-62
2020/12/10 22:39:03;;;;;;;16.20;10.40;;;15.20;62.20;;;;;;10452890;28;20041;-63
2020/12/10 22:44:04;;;;;;;15.75;9.93;;;15.20;62.40;;;;;;10452502;28;20127;-62
2020/12/10 22:49:04;;;;;;;17.52;10.60;;;15.20;62.30;;;;;;10461166;28;20393;-63
2020/12/10 22:54:05;;;;;;;13.57;9.52;;;15.20;62.40;;;;;;10453215;28;20552;-62
2020/12/10 22:59:06;;;;;;;13.80;9.02;;;15.10;62.20;;;;;;10461365;28;20111;-62
2020/12/10 23:04:06;;;;;;;13.50;9.38;;;15.10;62.40;;;;;;10452965;28;20130;-62
2020/12/10 23:09:10;;;;;;;15.57;10.32;;;15.00;62.30;;;;;;10459662;28;20115;-62
2020/12/10 23:14:11;;;;;;;12.80;9.95;;;15.00;62.30;;;;;;10459793;28;20106;-62
2020/12/10 23:19:12;;;;;;;15.50;10.10;;;15.00;62.40;;;;;;10470336;28;20085;-62
2020/12/10 23:24:12;;;;;;;13.85;9.85;;;15.00;62.40;;;;;;10464326;28;20025;-62
2020/12/10 23:29:13;;;;;;;13.63;9.40;;;14.90;62.40;;;;;;10460140;28;20215;-62
2020/12/10 23:34:14;;;;;;;12.93;9.63;;;14.90;62.50;;;;;;10460014;28;20029;-62
2020/12/10 23:39:14;;;;;;;12.57;9.90;;;14.90;62.40;;;;;;10442120;28;20489;-62
2020/12/10 23:44:15;;;;;;;13.82;9.50;;;14.90;62.50;;;;;;10465996;28;20112;-62
2020/12/10 23:49:16;;;;;;;12.98;8.98;;;14.80;62.30;;;;;;10458115;28;20033;-62
2020/12/10 23:54:16;;;;;;;12.75;9.52;;;14.80;62.40;;;;;;10463865;28;20476;-62
2020/12/10 23:59:17;;;;;;;13.38;8.85;;;14.80;62.30;;;;;;10457849;28;20486;-62
